createdAt,value
2019-03-01T00:00:03.958Z,100185.66
2019-03-01T00:05:58.384Z,100182.98
2019-03-01T00:09:06.698Z,100183.28
2019-03-01T00:12:13.698Z,100182.51
2019-03-01T00:15:22.024Z,100170.66
2019-03-01T00:18:29.014Z,100170.05
2019-03-01T00:21:37.390Z,100166.10
2019-03-01T00:24:44.379Z,100166.91
2019-03-01T00:27:52.697Z,100160.09
2019-03-01T00:30:59.699Z,100155.66
2019-03-01T00:34:06.705Z,100154.83
2019-03-01T00:37:15.081Z,100154.57
2019-03-01T00:40:22.068Z,100155.61
2019-03-01T00:43:30.391Z,100157.72
2019-03-01T00:45:58.804Z,100156.64
2019-03-01T00:48:46.321Z,100146.03
2019-03-01T00:51:14.739Z,100144.63
2019-03-01T00:54:02.386Z,100146.91
2019-03-01T00:56:30.798Z,100144.03
2019-03-01T00:59:18.321Z,100135.89
2019-03-01T01:01:46.739Z,100141.22
2019-03-01T01:04:15.147Z,100137.56
2019-03-01T01:06:43.561Z,100136.19
2019-03-01T01:09:12.216Z,100136.16
2019-03-01T01:11:40.631Z,100128.16
2019-03-01T01:14:09.033Z,100129.59
2019-03-01T01:16:37.450Z,100122.98
2019-03-01T01:19:24.966Z,100126.70
2019-03-01T01:22:33.286Z,100119.63
2019-03-01T01:25:20.802Z,100118.55
2019-03-01T01:27:49.231Z,100113.80
2019-03-01T01:30:17.632Z,100112.23
2019-03-01T01:32:46.053Z,100110.70
2019-03-01T01:35:33.704Z,100108.29
2019-03-01T01:38:02.122Z,100101.60
2019-03-01T01:40:49.879Z,100101.34
2019-03-01T01:43:18.289Z,100096.45
2019-03-01T01:46:05.942Z,100097.41
2019-03-01T01:48:53.607Z,100103.18
2019-03-01T01:51:22.010Z,100096.50
2019-03-01T01:54:09.539Z,100091.14
2019-03-01T01:59:31.138Z,100096.69
2019-03-01T02:02:18.803Z,100088.61
2019-03-01T02:05:06.470Z,100086.22
2019-03-01T02:07:53.994Z,100087.74
2019-03-01T02:11:02.299Z,100085.79
2019-03-01T02:13:49.831Z,100086.23
2019-03-01T02:16:18.240Z,100079.27
2019-03-01T02:19:05.897Z,100080.31
2019-03-01T02:21:34.301Z,100076.58
2019-03-01T02:24:02.716Z,100073.24
2019-03-01T02:26:50.369Z,100068.70
2019-03-01T02:29:18.789Z,100074.03
2019-03-01T02:31:59.644Z,100064.34
2019-03-01T02:34:28.061Z,100067.17
2019-03-01T02:37:15.591Z,100058.95
2019-03-01T02:40:03.114Z,100065.98
2019-03-01T02:42:31.529Z,100068.50
2019-03-01T02:44:59.936Z,100071.23
2019-03-01T02:47:47.593Z,100069.39
2019-03-01T02:50:35.365Z,100066.06
2019-03-01T02:53:22.998Z,100065.24
2019-03-01T02:55:51.414Z,100068.89
2019-03-01T02:58:39.083Z,100065.08
2019-03-01T03:01:26.602Z,100059.99
2019-03-01T03:04:14.131Z,100059.94
2019-03-01T03:09:50.864Z,100059.34
2019-03-01T03:15:46.671Z,100055.50
2019-03-01T03:18:15.060Z,100059.83
2019-03-01T03:21:02.706Z,100044.13
2019-03-01T03:23:31.120Z,100042.90
2019-03-01T03:25:59.545Z,100043.91
2019-03-01T03:28:47.273Z,100038.70
2019-03-01T03:31:15.689Z,100038.84
2019-03-01T03:33:44.121Z,100045.09
2019-03-01T03:36:31.763Z,100048.25
2019-03-01T03:39:19.296Z,100049.93
2019-03-01T03:41:47.697Z,100048.88
2019-03-01T03:44:35.360Z,100045.45
2019-03-01T03:47:22.877Z,100047.51
2019-03-01T03:52:26.882Z,100049.19
2019-03-01T03:55:14.552Z,100053.84
2019-03-01T03:58:22.866Z,100041.32
2019-03-01T04:00:51.279Z,100043.11
2019-03-01T04:03:20.026Z,100035.36
2019-03-01T04:05:48.441Z,100033.34
2019-03-01T04:08:16.848Z,100025.50
2019-03-01T04:10:45.269Z,100029.23
2019-03-01T04:13:13.675Z,100030.91
2019-03-01T04:15:42.448Z,100034.45
2019-03-01T04:18:30.178Z,100030.17
2019-03-01T04:21:17.841Z,100039.45
2019-03-01T04:23:46.255Z,100042.05
2019-03-01T04:37:10.146Z,100008.50
2019-03-01T04:39:57.671Z,100010.15
2019-03-01T04:42:26.084Z,100014.17
2019-03-01T04:44:54.511Z,100013.47
2019-03-01T04:47:22.924Z,100011.82
2019-03-01T04:50:10.593Z,100008.09
2019-03-01T04:53:18.898Z,100016.75
2019-03-01T04:56:06.583Z,100011.31
2019-03-01T04:58:54.108Z,100015.27
2019-03-01T05:01:22.538Z,100014.53
2019-03-01T05:03:50.953Z,100012.27
2019-03-01T05:06:19.359Z,100016.63
2019-03-01T05:08:48.123Z,100003.64
2019-03-01T05:11:35.801Z,100007.13
2019-03-01T05:14:44.117Z,100005.35
2019-03-01T05:17:31.786Z,100006.80
2019-03-01T05:20:19.319Z,100005.25
2019-03-01T05:22:47.735Z,100005.80
2019-03-01T05:25:16.155Z,100006.06
2019-03-01T05:28:03.714Z,99997.62
2019-03-01T05:30:32.149Z,99997.88
2019-03-01T05:33:19.671Z,100007.83
2019-03-01T05:36:07.367Z,100004.84
2019-03-01T05:38:55.043Z,100000.68
2019-03-01T05:41:42.710Z,100003.41
2019-03-01T05:46:58.601Z,100018.57
2019-03-01T05:49:27.015Z,100018.58
2019-03-01T05:52:14.567Z,100022.61
2019-03-01T05:54:42.972Z,100027.93
2019-03-01T05:57:11.394Z,100024.91
2019-03-01T05:59:39.796Z,100029.93
2019-03-01T06:02:48.121Z,100039.02
2019-03-01T06:05:16.529Z,100047.13
2019-03-01T06:08:24.903Z,100053.72
2019-03-01T06:11:33.232Z,100058.63
2019-03-01T06:14:40.217Z,100057.47
2019-03-01T06:17:47.219Z,100055.78
2019-03-01T06:20:55.587Z,100059.17
2019-03-01T06:24:03.910Z,100066.12
2019-03-01T06:27:12.231Z,100052.95
2019-03-01T06:30:19.244Z,100057.24
2019-03-01T06:33:26.303Z,100048.77
2019-03-01T06:36:34.628Z,100055.33
2019-03-01T06:39:43.000Z,100063.55
2019-03-01T06:42:50.006Z,100061.69
2019-03-01T06:45:57.005Z,100074.70
2019-03-01T06:54:18.455Z,100073.72
2019-03-01T06:57:06.130Z,100074.33
2019-03-01T06:59:34.537Z,100074.70
2019-03-01T07:04:52.038Z,100089.09
2019-03-01T07:07:20.455Z,100081.50
2019-03-01T07:09:48.863Z,100088.49
2019-03-01T07:12:36.526Z,100088.89
2019-03-01T07:15:44.835Z,100087.94
2019-03-01T07:18:32.498Z,100090.10
2019-03-01T07:21:00.902Z,100091.20
2019-03-01T07:23:48.430Z,100093.20
2019-03-01T07:26:16.839Z,100099.41
2019-03-01T07:31:19.751Z,100098.47
2019-03-01T07:34:07.284Z,100099.67
2019-03-01T07:36:35.687Z,100101.94
2019-03-01T07:39:25.232Z,100109.92
2019-03-01T07:41:53.594Z,100116.19
2019-03-01T07:44:41.255Z,100123.47
2019-03-01T07:47:09.662Z,100127.57
2019-03-01T07:49:38.077Z,100128.53
2019-03-01T07:52:06.477Z,100139.45
2019-03-01T07:54:54.008Z,100141.27
2019-03-01T07:57:22.414Z,100151.73
2019-03-01T08:00:14.061Z,100151.86
2019-03-01T08:03:22.665Z,100150.25
2019-03-01T08:05:51.070Z,100156.59
2019-03-01T08:10:56.340Z,100169.94
2019-03-01T08:13:43.419Z,100170.39
2019-03-01T08:16:11.827Z,100181.47
2019-03-01T08:18:44.172Z,100183.66
2019-03-01T08:21:11.423Z,100182.07
2019-03-01T08:23:40.492Z,100183.22
2019-03-01T08:26:08.895Z,100185.91
2019-03-01T08:28:37.309Z,100189.70
2019-03-01T08:31:05.701Z,100188.56
2019-03-01T08:33:34.108Z,100194.59
2019-03-01T08:36:21.626Z,100193.41
2019-03-01T08:38:50.037Z,100190.88
2019-03-01T08:41:37.550Z,100187.81
2019-03-01T08:44:06.271Z,100185.54
2019-03-01T08:46:34.668Z,100189.23
2019-03-01T08:49:03.078Z,100182.03
2019-03-01T08:54:38.277Z,100188.02
2019-03-01T08:57:06.677Z,100196.96
2019-03-01T08:59:54.329Z,100189.87
2019-03-01T09:02:22.732Z,100191.05
2019-03-01T09:04:51.353Z,100198.83
2019-03-01T09:07:21.271Z,100203.23
2019-03-01T09:10:32.666Z,100202.84
2019-03-01T09:15:49.484Z,100207.05
2019-03-01T09:18:17.313Z,100203.70
2019-03-01T09:21:25.634Z,100210.40
2019-03-01T09:23:55.101Z,100203.95
2019-03-01T09:26:24.168Z,100203.64
2019-03-01T09:29:13.039Z,100208.95
2019-03-01T09:32:01.084Z,100212.11
2019-03-01T09:37:22.578Z,100224.56
2019-03-01T09:40:10.113Z,100231.09
2019-03-01T09:42:57.761Z,100228.98
2019-03-01T09:45:35.633Z,100237.86
2019-03-01T09:51:02.861Z,100239.05
2019-03-01T09:53:34.046Z,100243.83
2019-03-01T09:56:01.399Z,100250.73
2019-03-01T09:58:29.801Z,100256.94
2019-03-01T10:01:38.126Z,100245.48
2019-03-01T10:06:54.248Z,100260.09
2019-03-01T10:12:10.099Z,100270.66
2019-03-01T10:14:38.496Z,100275.92
2019-03-01T10:22:58.142Z,100285.20
2019-03-01T10:25:26.633Z,100282.45
2019-03-01T10:28:14.189Z,100282.32
2019-03-01T10:30:42.643Z,100282.61
2019-03-01T10:33:11.075Z,100287.81
2019-03-01T10:35:58.633Z,100288.17
2019-03-01T10:38:46.296Z,100293.19
2019-03-01T10:41:14.731Z,100288.56
2019-03-01T10:43:43.145Z,100291.97
2019-03-01T10:46:11.601Z,100300.98
2019-03-01T10:48:40.013Z,100298.36
2019-03-01T10:51:27.552Z,100300.77
2019-03-01T10:53:55.949Z,100299.97
2019-03-01T10:56:43.615Z,100300.42
2019-03-01T10:59:31.266Z,100310.16
2019-03-01T11:01:59.679Z,100319.18
2019-03-01T11:04:28.070Z,100317.48
2019-03-01T11:07:36.380Z,100324.05
2019-03-01T11:10:44.693Z,100332.85
2019-03-01T11:13:53.007Z,100335.78
2019-03-01T11:19:08.847Z,100345.44
2019-03-01T11:21:37.277Z,100349.59
2019-03-01T11:27:15.517Z,100360.89
2019-03-01T11:29:43.971Z,100363.80
2019-03-01T11:32:31.485Z,100361.36
2019-03-01T11:35:19.127Z,100362.61
2019-03-01T11:37:47.544Z,100360.55
2019-03-01T11:40:56.003Z,100358.39
2019-03-01T11:43:45.161Z,100349.92
2019-03-01T11:46:32.820Z,100359.41
2019-03-01T11:49:20.367Z,100357.65
2019-03-01T11:51:48.761Z,100352.07
2019-03-01T11:54:36.440Z,100360.13
2019-03-01T11:57:04.869Z,100360.27
2019-03-01T11:59:33.303Z,100357.25
2019-03-01T12:02:01.725Z,100355.62
2019-03-01T12:04:49.499Z,100368.42
2019-03-01T12:07:17.900Z,100378.08
2019-03-01T12:10:05.590Z,100377.94
2019-03-01T12:12:34.021Z,100378.22
2019-03-01T12:15:02.464Z,100391.29
2019-03-01T12:20:58.244Z,100397.45
2019-03-01T12:23:45.894Z,100398.67
2019-03-01T12:26:33.423Z,100399.28
2019-03-01T12:29:01.842Z,100399.20
2019-03-01T12:31:49.620Z,100403.35
2019-03-01T12:34:37.363Z,100408.44
2019-03-01T12:37:05.771Z,100411.34
2019-03-01T12:39:53.328Z,100414.27
2019-03-01T12:42:21.738Z,100417.80
2019-03-01T12:45:09.277Z,100421.28
2019-03-01T12:47:56.950Z,100417.05
2019-03-01T12:50:25.363Z,100422.97
2019-03-01T12:52:53.833Z,100420.70
2019-03-01T12:56:02.159Z,100413.69
2019-03-01T12:58:30.563Z,100422.67
2019-03-01T13:03:46.407Z,100426.25
2019-03-01T13:06:35.482Z,100426.84
2019-03-01T13:09:44.071Z,100428.89
2019-03-01T13:12:12.467Z,100428.11
2019-03-01T13:15:00.179Z,100424.98
2019-03-01T13:17:30.230Z,100423.08
2019-03-01T13:20:01.221Z,100423.87
2019-03-01T13:22:48.001Z,100423.11
2019-03-01T13:25:16.403Z,100424.72
2019-03-01T13:27:44.803Z,100425.95
2019-03-01T13:30:53.121Z,100436.53
2019-03-01T13:33:21.534Z,100437.20
2019-03-01T13:38:23.846Z,100435.28
2019-03-01T13:40:54.164Z,100439.39
2019-03-01T13:43:23.763Z,100428.70
2019-03-01T13:45:53.416Z,100429.48
2019-03-01T13:48:22.623Z,100432.95
2019-03-01T13:50:51.031Z,100432.34
2019-03-01T13:53:38.803Z,100430.37
2019-03-01T13:56:26.504Z,100433.77
2019-03-01T13:59:14.230Z,100430.42
2019-03-01T14:02:04.341Z,100433.13
2019-03-01T14:04:32.248Z,100433.13
2019-03-01T14:07:00.703Z,100428.34
2019-03-01T14:14:59.273Z,100436.67
2019-03-01T14:20:36.129Z,100431.78
2019-03-01T14:23:44.522Z,100427.31
2019-03-01T14:26:15.157Z,100429.11
2019-03-01T14:34:04.732Z,100440.77
2019-03-01T14:39:20.572Z,100444.28
2019-03-01T14:41:48.965Z,100446.50
2019-03-01T14:44:36.703Z,100447.28
2019-03-01T14:47:24.216Z,100450.13
2019-03-01T14:49:53.933Z,100448.41
2019-03-01T14:52:41.861Z,100442.63
2019-03-01T14:55:50.179Z,100445.20
2019-03-01T14:58:59.023Z,100449.39
2019-03-01T15:02:07.258Z,100444.34
2019-03-01T15:04:54.912Z,100449.77
2019-03-01T15:07:23.303Z,100461.62
2019-03-01T15:10:14.894Z,100465.28
2019-03-01T15:12:43.294Z,100470.87
2019-03-01T15:15:13.034Z,100470.40
2019-03-01T15:17:41.432Z,100470.35
2019-03-01T15:20:12.549Z,100475.91
2019-03-01T15:22:40.949Z,100480.69
2019-03-01T15:25:11.989Z,100478.94
2019-03-01T15:27:40.969Z,100480.46
2019-03-01T15:30:12.506Z,100489.33
2019-03-01T15:32:40.880Z,100497.05
2019-03-01T15:35:09.550Z,100501.47
2019-03-01T15:37:38.518Z,100496.85
2019-03-01T15:40:09.266Z,100497.42
2019-03-01T15:42:37.653Z,100493.52
2019-03-01T15:45:09.106Z,100488.25
2019-03-01T15:47:37.602Z,100492.05
2019-03-01T15:50:11.064Z,100497.21
2019-03-01T15:52:39.460Z,100495.53
2019-03-01T15:55:11.774Z,100498.89
2019-03-01T15:57:39.520Z,100499.00
2019-03-01T16:00:18.747Z,100499.36
2019-03-01T16:02:49.952Z,100503.86
2019-03-01T16:05:17.257Z,100499.20
2019-03-01T16:07:45.649Z,100497.05
2019-03-01T16:10:16.737Z,100500.11
2019-03-01T16:12:45.133Z,100499.14
2019-03-01T16:15:16.985Z,100501.89
2019-03-01T16:17:45.370Z,100508.29
2019-03-01T16:20:16.185Z,100508.39
2019-03-01T16:22:44.583Z,100508.23
2019-03-01T16:25:17.241Z,100508.41
2019-03-01T16:27:44.958Z,100515.86
2019-03-01T16:30:18.304Z,100518.29
2019-03-01T16:32:50.407Z,100518.50
2019-03-01T16:35:18.058Z,100530.16
2019-03-01T16:37:51.029Z,100533.45
2019-03-01T16:40:19.552Z,100537.97
2019-03-01T16:42:52.969Z,100538.70
2019-03-01T16:45:21.197Z,100540.10
2019-03-01T16:47:48.939Z,100545.91
2019-03-01T16:50:18.087Z,100546.70
2019-03-01T16:52:46.488Z,100543.16
2019-03-01T16:55:27.968Z,100550.20
2019-03-01T16:58:06.300Z,100542.78
2019-03-01T17:00:26.822Z,100555.59
2019-03-01T17:03:17.991Z,100552.05
2019-03-01T17:05:44.818Z,100553.47
2019-03-01T17:08:13.210Z,100554.12
2019-03-01T17:10:42.184Z,100559.98
2019-03-01T17:13:10.602Z,100564.80
2019-03-01T17:15:39.002Z,100555.85
2019-03-01T17:18:11.264Z,100564.96
2019-03-01T17:20:38.574Z,100559.41
2019-03-01T17:23:07.074Z,100565.41
2019-03-01T17:25:35.474Z,100571.92
2019-03-01T17:28:04.028Z,100571.12
2019-03-01T17:30:32.438Z,100574.96
2019-03-01T17:33:00.832Z,100578.88
2019-03-01T17:35:29.265Z,100582.37
2019-03-01T17:37:57.763Z,100579.51
2019-03-01T17:40:29.259Z,100582.05
2019-03-01T17:42:57.388Z,100588.56
2019-03-01T17:45:26.640Z,100594.46
2019-03-01T17:47:55.510Z,100595.60
2019-03-01T17:50:23.934Z,100595.74
2019-03-01T17:52:52.323Z,100598.17
2019-03-01T17:55:24.375Z,100602.89
2019-03-01T17:57:53.088Z,100606.81
2019-03-01T18:00:36.973Z,100606.41
2019-03-01T18:03:05.730Z,100614.30
2019-03-01T18:05:36.991Z,100622.05
2019-03-01T18:08:04.989Z,100618.52
2019-03-01T18:10:33.515Z,100618.73
2019-03-01T18:13:01.916Z,100619.02
2019-03-01T18:15:30.312Z,100627.62
2019-03-01T18:17:58.721Z,100620.75
2019-03-01T18:20:27.195Z,100623.20
2019-03-01T18:22:55.604Z,100626.70
2019-03-01T18:25:26.199Z,100632.33
2019-03-01T18:27:54.139Z,100629.41
2019-03-01T18:30:33.438Z,100625.55
2019-03-01T18:33:01.849Z,100630.97
2019-03-01T18:35:30.343Z,100634.09
2019-03-01T18:37:58.902Z,100629.45
2019-03-01T18:40:27.300Z,100629.92
2019-03-01T18:42:55.747Z,100638.42
2019-03-01T18:45:25.579Z,100636.56
2019-03-01T18:47:53.986Z,100629.95
2019-03-01T18:50:37.012Z,100635.55
2019-03-01T18:53:05.413Z,100638.09
2019-03-01T18:55:33.814Z,100634.31
2019-03-01T18:58:02.216Z,100643.55
2019-03-01T19:00:36.965Z,100638.56
2019-03-01T19:03:06.229Z,100650.43
2019-03-01T19:05:36.570Z,100639.64
2019-03-01T19:08:06.181Z,100647.06
2019-03-01T19:10:35.140Z,100643.55
2019-03-01T19:13:04.004Z,100652.93
2019-03-01T19:15:32.491Z,100651.24
2019-03-01T19:18:00.909Z,100650.70
2019-03-01T19:20:31.760Z,100647.36
2019-03-01T19:23:00.176Z,100650.19
2019-03-01T19:25:28.575Z,100650.96
2019-03-01T19:27:56.981Z,100647.66
2019-03-01T19:30:26.016Z,100647.97
2019-03-01T19:32:54.466Z,100653.30
2019-03-01T19:35:28.507Z,100653.53
2019-03-01T19:37:53.081Z,100653.53
2019-03-01T19:40:22.922Z,100661.91
2019-03-01T19:42:51.329Z,100658.20
2019-03-01T19:45:20.328Z,100661.73
2019-03-01T19:47:48.771Z,100656.07
2019-03-01T19:50:25.081Z,100660.83
2019-03-01T19:52:52.954Z,100666.36
2019-03-01T19:55:21.356Z,100666.66
2019-03-01T19:57:49.777Z,100668.45
2019-03-01T20:00:28.978Z,100675.66
2019-03-01T20:02:57.404Z,100675.41
2019-03-01T20:05:31.880Z,100677.66
2019-03-01T20:08:00.728Z,100684.01
2019-03-01T20:10:29.133Z,100682.69
2019-03-01T20:12:58.516Z,100683.41
2019-03-01T20:15:28.174Z,100680.16
2019-03-01T20:17:56.610Z,100682.55
2019-03-01T20:20:33.355Z,100692.70
2019-03-01T20:23:01.347Z,100687.87
2019-03-01T20:25:29.875Z,100688.95
2019-03-01T20:27:58.297Z,100687.24
2019-03-01T20:30:30.195Z,100686.55
2019-03-01T20:32:58.165Z,100684.55
2019-03-01T20:35:27.033Z,100675.17
2019-03-01T20:37:55.602Z,100675.58
2019-03-01T20:40:26.592Z,100677.94
2019-03-01T20:42:56.014Z,100674.94
2019-03-01T20:45:32.305Z,100689.09
2019-03-01T20:48:00.793Z,100691.66
2019-03-01T20:50:29.215Z,100693.05
2019-03-01T20:52:57.612Z,100686.27
2019-03-01T20:55:26.016Z,100691.75
2019-03-01T20:57:54.498Z,100690.06
2019-03-01T21:00:29.998Z,100691.20
2019-03-01T21:02:58.503Z,100691.61
2019-03-01T21:05:28.937Z,100691.77
2019-03-01T21:07:57.061Z,100693.61
2019-03-01T21:10:46.752Z,100699.49
2019-03-01T21:13:14.943Z,100698.22
2019-03-01T21:15:43.352Z,100695.59
2019-03-01T21:18:34.069Z,100702.05
2019-03-01T21:21:20.253Z,100699.10
2019-03-01T21:24:07.769Z,100705.52
2019-03-01T21:32:11.719Z,100697.81
2019-03-01T21:34:41.650Z,100686.83
2019-03-01T21:37:29.300Z,100692.50
2019-03-01T21:40:16.829Z,100692.12
2019-03-01T21:42:45.326Z,100696.59
2019-03-01T21:45:33.182Z,100694.53
2019-03-01T21:48:22.030Z,100694.91
2019-03-01T21:50:51.621Z,100690.83
2019-03-01T21:53:39.896Z,100692.40
2019-03-01T21:56:09.843Z,100694.98
2019-03-01T22:01:45.020Z,100698.64
2019-03-01T22:07:08.216Z,100704.52
2019-03-01T22:09:56.780Z,100707.45
2019-03-01T22:12:45.095Z,100709.35
2019-03-01T22:18:25.879Z,100709.41
2019-03-01T22:21:16.912Z,100706.64
2019-03-01T22:24:02.968Z,100708.73
2019-03-01T22:26:50.616Z,100713.85
2019-03-01T22:29:38.257Z,100718.25
2019-03-01T22:32:07.350Z,100716.56
2019-03-01T22:34:36.804Z,100714.68
2019-03-01T22:39:58.719Z,100711.44
2019-03-01T22:42:49.696Z,100712.56
2019-03-01T22:45:56.492Z,100714.01
2019-03-01T22:48:24.898Z,100719.13
2019-03-01T22:50:53.298Z,100715.65
2019-03-01T22:53:42.072Z,100716.13
2019-03-01T22:56:30.188Z,100726.29
2019-03-01T22:59:38.495Z,100725.02
2019-03-01T23:02:46.805Z,100723.57
2019-03-01T23:08:21.766Z,100716.73
2019-03-01T23:13:42.942Z,100724.17
2019-03-01T23:16:11.344Z,100726.13
2019-03-01T23:21:47.815Z,100726.46
2019-03-01T23:27:22.777Z,100731.30
2019-03-01T23:29:54.345Z,100727.78
2019-03-01T23:32:40.404Z,100735.84
2019-03-01T23:35:08.800Z,100736.41
2019-03-01T23:37:38.913Z,100733.69
2019-03-01T23:40:47.233Z,100726.66
2019-03-01T23:45:53.793Z,100717.63
2019-03-01T23:50:54.131Z,100717.63
2019-03-01T23:53:41.654Z,100719.45
2019-03-01T23:56:10.333Z,100718.98
2019-03-01T23:58:38.745Z,100729.33
